Aviation Digital Data Service (ADDS)

Output produced by TAFs form (0637 UTC 24 September 2017)
found at http://aviationweather.gov/adds/tafs/
 
KGJT 240524Z 2406/2506 12007KT P6SM FEW070 SCT130 
     FM241700 21008KT P6SM FEW070 SCT130 
     FM241900 26012KT P6SM SCT070 BKN120 
     FM242100 27014G24KT P6SM FEW090 SCT120 
     FM250200 31005KT P6SM FEW080 SCT200